< < Back
Terminal Aerodrome Forecast


Current Version              Previous Versions:   1  2  3  4  5  6  7  8  9  

Terminal Aerodrome Forecast

768
FTUS44 KBMX 271120
TAFBHM
TAF
KBHM 271120Z 2712/2812 16005KT P6SM BKN250
     FM271500 16008KT P6SM BKN250
     FM271800 16011KT P6SM BKN050 BKN250
     FM280300 12006KT P6SM BKN250=



Latest METAR

555
SAUS70 KWBC 271400 RRE
MTRBHM
METAR KBHM 271353Z 18008KT 10SM BKN250 26/17 A3010 RMK AO2 SLP182
T02610172


USA.gov is the U.S. government's official web portal to all federal, state and local government web resources and services.